Dubuque (DBQ/KDBQ)

Map

Destinations

Information

Location
Dubuque, Iowa
Local Time
17:18 / 5:18 pm
GMT Time
23:18 / 11:18 pm
Gates
Unassigned
No FAA reported delays
METAR KDBQ 182253Z 21011KT 10SM CLR M02/M08 A2993 RMK AO2 SLP153 T10221078
TAF KDBQ 181936Z 1818/1918 22015KT P6SM SKC FM190100 21010KT P6SM BKN250